sensor_id;sensor_type;location;lat;lon;timestamp;pressure;altitude;pressure_sealevel;temperature;humidity
15382;BME280;7789;51.364;12.358;2023-05-08T00:04:00;101136.00;;;9.27;97.45
15382;BME280;7789;51.364;12.358;2023-05-08T00:09:04;101125.03;;;9.22;97.90
15382;BME280;7789;51.364;12.358;2023-05-08T00:14:10;101132.03;;;9.21;97.61
15382;BME280;7789;51.364;12.358;2023-05-08T00:19:18;101126.09;;;9.19;98.11
15382;BME280;7789;51.364;12.358;2023-05-08T00:24:24;101139.31;;;9.16;97.83
15382;BME280;7789;51.364;12.358;2023-05-08T00:29:30;101137.84;;;9.13;97.86
15382;BME280;7789;51.364;12.358;2023-05-08T00:34:41;101130.94;;;9.12;98.50
15382;BME280;7789;51.364;12.358;2023-05-08T00:39:49;101123.22;;;9.10;98.85
15382;BME280;7789;51.364;12.358;2023-05-08T00:44:54;101142.88;;;9.02;98.94
15382;BME280;7789;51.364;12.358;2023-05-08T00:50:02;101136.09;;;8.99;99.38
15382;BME280;7789;51.364;12.358;2023-05-08T00:55:08;101121.69;;;8.94;99.14
15382;BME280;7789;51.364;12.358;2023-05-08T01:00:18;101121.16;;;8.89;99.28
15382;BME280;7789;51.364;12.358;2023-05-08T01:05:26;101134.47;;;8.84;99.76
15382;BME280;7789;51.364;12.358;2023-05-08T01:10:46;101140.59;;;8.83;99.80
15382;BME280;7789;51.364;12.358;2023-05-08T01:16:01;101139.13;;;8.79;100.00
15382;BME280;7789;51.364;12.358;2023-05-08T01:21:20;101143.69;;;8.76;100.00
15382;BME280;7789;51.364;12.358;2023-05-08T01:32:18;101151.03;;;8.69;100.00
15382;BME280;7789;51.364;12.358;2023-05-08T01:37:36;101151.50;;;8.62;100.00
15382;BME280;7789;51.364;12.358;2023-05-08T01:42:48;101148.44;;;8.55;100.00
15382;BME280;7789;51.364;12.358;2023-05-08T01:48:04;101146.09;;;8.51;100.00
15382;BME280;7789;51.364;12.358;2023-05-08T01:53:18;101155.78;;;8.49;100.00
15382;BME280;7789;51.364;12.358;2023-05-08T01:58:25;101152.56;;;8.45;100.00
15382;BME280;7789;51.364;12.358;2023-05-08T02:03:36;101149.22;;;8.43;100.00
15382;BME280;7789;51.364;12.358;2023-05-08T02:08:48;101147.06;;;8.36;100.00
15382;BME280;7789;51.364;12.358;2023-05-08T02:13:56;101155.97;;;8.32;100.00
15382;BME280;7789;51.364;12.358;2023-05-08T02:19:10;101146.66;;;8.28;100.00
15382;BME280;7789;51.364;12.358;2023-05-08T02:24:24;101149.66;;;8.22;100.00
15382;BME280;7789;51.364;12.358;2023-05-08T02:29:39;101156.84;;;8.17;100.00
15382;BME280;7789;51.364;12.358;2023-05-08T02:34:54;101159.56;;;8.15;100.00
15382;BME280;7789;51.364;12.358;2023-05-08T02:40:15;101163.91;;;8.15;100.00
15382;BME280;7789;51.364;12.358;2023-05-08T02:45:31;101159.34;;;8.04;100.00
15382;BME280;7789;51.364;12.358;2023-05-08T02:50:57;101163.63;;;8.05;100.00
15382;BME280;7789;51.364;12.358;2023-05-08T02:56:09;101161.56;;;7.96;100.00
15382;BME280;7789;51.364;12.358;2023-05-08T03:01:23;101164.44;;;7.92;100.00
15382;BME280;7789;51.364;12.358;2023-05-08T03:06:39;101164.63;;;7.89;100.00
15382;BME280;7789;51.364;12.358;2023-05-08T03:11:52;101164.06;;;7.84;100.00
15382;BME280;7789;51.364;12.358;2023-05-08T03:17:06;101170.94;;;7.85;100.00
15382;BME280;7789;51.364;12.358;2023-05-08T03:22:20;101176.28;;;7.82;100.00
15382;BME280;7789;51.364;12.358;2023-05-08T03:27:28;101171.53;;;7.74;100.00
15382;BME280;7789;51.364;12.358;2023-05-08T03:32:34;101170.03;;;7.70;100.00
15382;BME280;7789;51.364;12.358;2023-05-08T03:37:46;101170.31;;;7.66;100.00
15382;BME280;7789;51.364;12.358;2023-05-08T03:42:55;101166.19;;;7.62;100.00
15382;BME280;7789;51.364;12.358;2023-05-08T03:48:03;101166.28;;;7.60;100.00
15382;BME280;7789;51.364;12.358;2023-05-08T03:53:17;101163.00;;;7.57;100.00
15382;BME280;7789;51.364;12.358;2023-05-08T03:58:27;101176.78;;;7.59;100.00
15382;BME280;7789;51.364;12.358;2023-05-08T04:03:52;101171.69;;;7.57;100.00
15382;BME280;7789;51.364;12.358;2023-05-08T04:09:41;101176.59;;;7.62;100.00
15382;BME280;7789;51.364;12.358;2023-05-08T04:14:54;101169.53;;;7.64;100.00
15382;BME280;7789;51.364;12.358;2023-05-08T04:20:04;101182.97;;;7.72;100.00
15382;BME280;7789;51.364;12.358;2023-05-08T04:25:16;101179.31;;;7.74;100.00
15382;BME280;7789;51.364;12.358;2023-05-08T04:30:25;101193.56;;;7.83;100.00
15382;BME280;7789;51.364;12.358;2023-05-08T04:35:33;101185.25;;;7.92;100.00
15382;BME280;7789;51.364;12.358;2023-05-08T04:40:50;101191.69;;;8.00;100.00
15382;BME280;7789;51.364;12.358;2023-05-08T04:45:56;101196.84;;;8.16;100.00
15382;BME280;7789;51.364;12.358;2023-05-08T04:51:02;101209.72;;;8.33;100.00
15382;BME280;7789;51.364;12.358;2023-05-08T04:56:15;101206.34;;;8.60;100.00
15382;BME280;7789;51.364;12.358;2023-05-08T05:01:32;101204.63;;;10.46;100.00
15382;BME280;7789;51.364;12.358;2023-05-08T05:06:38;101195.88;;;13.56;87.15
15382;BME280;7789;51.364;12.358;2023-05-08T05:11:44;101201.88;;;15.50;75.56
15382;BME280;7789;51.364;12.358;2023-05-08T05:16:52;101206.72;;;16.69;66.51
15382;BME280;7789;51.364;12.358;2023-05-08T05:22:04;101195.88;;;18.40;60.72
15382;BME280;7789;51.364;12.358;2023-05-08T05:27:14;101201.28;;;19.72;54.00
15382;BME280;7789;51.364;12.358;2023-05-08T05:32:49;101200.31;;;20.53;48.81
15382;BME280;7789;51.364;12.358;2023-05-08T05:37:57;101198.41;;;21.62;47.20
15382;BME280;7789;51.364;12.358;2023-05-08T05:43:06;101200.84;;;22.90;43.61
15382;BME280;7789;51.364;12.358;2023-05-08T05:48:14;101197.84;;;24.20;41.61
15382;BME280;7789;51.364;12.358;2023-05-08T05:53:31;101203.72;;;24.85;39.38
15382;BME280;7789;51.364;12.358;2023-05-08T05:58:47;101207.31;;;24.44;37.37
15382;BME280;7789;51.364;12.358;2023-05-08T06:03:59;101201.78;;;24.73;38.35
15382;BME280;7789;51.364;12.358;2023-05-08T06:09:05;101224.34;;;25.78;35.67
15382;BME280;7789;51.364;12.358;2023-05-08T06:14:14;101217.84;;;26.59;33.67
15382;BME280;7789;51.364;12.358;2023-05-08T06:19:25;101225.88;;;27.54;31.74
15382;BME280;7789;51.364;12.358;2023-05-08T06:29:44;101216.94;;;27.60;30.05
15382;BME280;7789;51.364;12.358;2023-05-08T06:34:50;101230.72;;;28.39;30.47
15382;BME280;7789;51.364;12.358;2023-05-08T06:40:20;101223.31;;;27.66;30.85
15382;BME280;7789;51.364;12.358;2023-05-08T06:45:27;101217.59;;;26.86;30.59
15382;BME280;7789;51.364;12.358;2023-05-08T06:50:36;101225.47;;;26.55;31.32
15382;BME280;7789;51.364;12.358;2023-05-08T06:55:42;101223.50;;;27.71;30.04
15382;BME280;7789;51.364;12.358;2023-05-08T07:00:52;101220.03;;;28.26;29.04
15382;BME280;7789;51.364;12.358;2023-05-08T07:06:01;101217.66;;;27.80;30.66
15382;BME280;7789;51.364;12.358;2023-05-08T07:11:08;101217.22;;;28.14;30.51
15382;BME280;7789;51.364;12.358;2023-05-08T07:16:31;101219.59;;;28.35;28.89
15382;BME280;7789;51.364;12.358;2023-05-08T07:21:39;101196.16;;;25.95;31.68
15382;BME280;7789;51.364;12.358;2023-05-08T07:26:46;101206.22;;;24.38;34.58
15382;BME280;7789;51.364;12.358;2023-05-08T07:31:59;101215.78;;;23.49;35.72
15382;BME280;7789;51.364;12.358;2023-05-08T07:37:04;101206.56;;;23.16;36.71
15382;BME280;7789;51.364;12.358;2023-05-08T07:42:08;101204.22;;;22.69;37.72
15382;BME280;7789;51.364;12.358;2023-05-08T07:47:18;101213.09;;;21.58;38.70
15382;BME280;7789;51.364;12.358;2023-05-08T07:52:24;101209.66;;;21.11;39.98
15382;BME280;7789;51.364;12.358;2023-05-08T07:57:35;101207.53;;;21.98;39.13
15382;BME280;7789;51.364;12.358;2023-05-08T08:02:43;101201.00;;;22.23;38.55
15382;BME280;7789;51.364;12.358;2023-05-08T08:07:51;101193.19;;;21.46;40.02
15382;BME280;7789;51.364;12.358;2023-05-08T08:13:01;101211.41;;;21.26;40.51
15382;BME280;7789;51.364;12.358;2023-05-08T08:18:08;101210.56;;;20.95;41.06
15382;BME280;7789;51.364;12.358;2023-05-08T08:23:18;101212.16;;;20.18;42.53
15382;BME280;7789;51.364;12.358;2023-05-08T08:28:29;101200.53;;;20.19;42.76
15382;BME280;7789;51.364;12.358;2023-05-08T08:33:39;101196.72;;;21.08;41.72
15382;BME280;7789;51.364;12.358;2023-05-08T08:38:46;101200.34;;;20.37;42.12
15382;BME280;7789;51.364;12.358;2023-05-08T08:43:52;101207.59;;;19.87;43.06
15382;BME280;7789;51.364;12.358;2023-05-08T08:49:04;101206.44;;;19.81;44.17
15382;BME280;7789;51.364;12.358;2023-05-08T08:54:16;101211.28;;;20.42;44.01
15382;BME280;7789;51.364;12.358;2023-05-08T08:59:26;101211.59;;;19.83;44.54
15382;BME280;7789;51.364;12.358;2023-05-08T09:04:34;101211.69;;;19.08;45.87
15382;BME280;7789;51.364;12.358;2023-05-08T09:09:49;101214.09;;;19.27;46.86
15382;BME280;7789;51.364;12.358;2023-05-08T09:14:57;101208.28;;;18.90;46.75
15382;BME280;7789;51.364;12.358;2023-05-08T09:20:06;101207.03;;;18.51;47.27
15382;BME280;7789;51.364;12.358;2023-05-08T09:25:17;101205.44;;;18.58;48.25
15382;BME280;7789;51.364;12.358;2023-05-08T09:30:27;101218.81;;;18.31;48.13
15382;BME280;7789;51.364;12.358;2023-05-08T09:35:36;101220.84;;;17.85;48.52
15382;BME280;7789;51.364;12.358;2023-05-08T09:40:42;101212.56;;;17.80;48.67
15382;BME280;7789;51.364;12.358;2023-05-08T09:45:49;101206.13;;;18.00;49.35
15382;BME280;7789;51.364;12.358;2023-05-08T09:51:04;101206.84;;;18.10;48.59
15382;BME280;7789;51.364;12.358;2023-05-08T09:56:08;101201.13;;;17.97;48.75
15382;BME280;7789;51.364;12.358;2023-05-08T10:01:28;101209.16;;;17.87;48.56
15382;BME280;7789;51.364;12.358;2023-05-08T10:06:41;101212.16;;;17.92;48.89
15382;BME280;7789;51.364;12.358;2023-05-08T10:11:50;101203.38;;;17.92;49.35
15382;BME280;7789;51.364;12.358;2023-05-08T10:16:59;101203.56;;;17.90;48.88
15382;BME280;7789;51.364;12.358;2023-05-08T10:22:28;101210.56;;;17.99;48.51
15382;BME280;7789;51.364;12.358;2023-05-08T10:27:40;101206.78;;;18.02;47.74
15382;BME280;7789;51.364;12.358;2023-05-08T10:32:51;101197.09;;;17.93;47.48
15382;BME280;7789;51.364;12.358;2023-05-08T10:38:01;101191.94;;;18.09;47.19
15382;BME280;7789;51.364;12.358;2023-05-08T10:43:08;101183.91;;;18.18;48.02
15382;BME280;7789;51.364;12.358;2023-05-08T10:48:21;101181.81;;;18.39;47.31
15382;BME280;7789;51.364;12.358;2023-05-08T10:53:37;101176.81;;;18.36;46.55
15382;BME280;7789;51.364;12.358;2023-05-08T10:58:43;101185.91;;;18.59;47.16
15382;BME280;7789;51.364;12.358;2023-05-08T11:03:49;101173.47;;;18.60;46.31
15382;BME280;7789;51.364;12.358;2023-05-08T11:08:59;101181.75;;;18.57;45.99
15382;BME280;7789;51.364;12.358;2023-05-08T11:14:14;101163.47;;;18.46;46.10
15382;BME280;7789;51.364;12.358;2023-05-08T11:19:20;101167.06;;;18.70;45.23
15382;BME280;7789;51.364;12.358;2023-05-08T11:24:34;101167.47;;;18.75;44.70
15382;BME280;7789;51.364;12.358;2023-05-08T11:29:40;101176.19;;;18.68;43.57
15382;BME280;7789;51.364;12.358;2023-05-08T11:34:46;101157.44;;;18.61;43.89
15382;BME280;7789;51.364;12.358;2023-05-08T11:45:42;101137.44;;;19.08;42.83
15382;BME280;7789;51.364;12.358;2023-05-08T11:50:49;101149.88;;;19.07;42.15
15382;BME280;7789;51.364;12.358;2023-05-08T11:55:56;101145.06;;;19.11;41.91
15382;BME280;7789;51.364;12.358;2023-05-08T12:01:05;101145.31;;;19.17;42.18
15382;BME280;7789;51.364;12.358;2023-05-08T12:06:10;101145.78;;;19.21;41.06
15382;BME280;7789;51.364;12.358;2023-05-08T12:11:23;101140.66;;;19.19;41.20
15382;BME280;7789;51.364;12.358;2023-05-08T12:16:34;101133.53;;;19.20;41.54
15382;BME280;7789;51.364;12.358;2023-05-08T12:21:45;101122.75;;;19.21;41.21
15382;BME280;7789;51.364;12.358;2023-05-08T12:26:55;101121.81;;;19.38;40.99
15382;BME280;7789;51.364;12.358;2023-05-08T12:32:00;101113.69;;;19.56;41.09
15382;BME280;7789;51.364;12.358;2023-05-08T12:37:04;101113.69;;;19.56;40.63
15382;BME280;7789;51.364;12.358;2023-05-08T12:42:12;101108.41;;;19.64;40.30
15382;BME280;7789;51.364;12.358;2023-05-08T12:47:25;101100.78;;;19.69;40.15
15382;BME280;7789;51.364;12.358;2023-05-08T12:52:31;101099.97;;;19.84;39.40
15382;BME280;7789;51.364;12.358;2023-05-08T12:57:42;101094.81;;;19.83;38.28
15382;BME280;7789;51.364;12.358;2023-05-08T13:02:52;101091.31;;;19.82;38.52
15382;BME280;7789;51.364;12.358;2023-05-08T13:08:00;101089.81;;;19.88;37.74
15382;BME280;7789;51.364;12.358;2023-05-08T13:13:07;101083.50;;;19.97;37.43
15382;BME280;7789;51.364;12.358;2023-05-08T13:18:13;101076.06;;;20.08;37.53
15382;BME280;7789;51.364;12.358;2023-05-08T13:23:19;101066.59;;;20.06;36.53
15382;BME280;7789;51.364;12.358;2023-05-08T13:28:27;101048.84;;;20.06;36.17
15382;BME280;7789;51.364;12.358;2023-05-08T13:33:39;101049.47;;;20.16;37.16
15382;BME280;7789;51.364;12.358;2023-05-08T13:38:48;101050.47;;;20.15;36.06
15382;BME280;7789;51.364;12.358;2023-05-08T13:43:55;101045.50;;;20.20;36.13
15382;BME280;7789;51.364;12.358;2023-05-08T13:49:00;101034.22;;;20.18;35.62
15382;BME280;7789;51.364;12.358;2023-05-08T13:54:05;101030.81;;;20.32;36.05
15382;BME280;7789;51.364;12.358;2023-05-08T13:59:17;101031.97;;;20.38;35.45
15382;BME280;7789;51.364;12.358;2023-05-08T14:04:27;101024.06;;;20.30;34.82
15382;BME280;7789;51.364;12.358;2023-05-08T14:09:32;101017.53;;;20.32;35.13
15382;BME280;7789;51.364;12.358;2023-05-08T14:14:41;101022.66;;;20.42;35.81
15382;BME280;7789;51.364;12.358;2023-05-08T14:19:48;101017.03;;;20.45;35.09
15382;BME280;7789;51.364;12.358;2023-05-08T14:24:55;101024.00;;;20.38;34.86
15382;BME280;7789;51.364;12.358;2023-05-08T14:30:14;101004.75;;;20.44;34.71
15382;BME280;7789;51.364;12.358;2023-05-08T14:35:23;100998.88;;;20.48;34.80
15382;BME280;7789;51.364;12.358;2023-05-08T14:40:29;101005.91;;;20.41;35.26
15382;BME280;7789;51.364;12.358;2023-05-08T14:45:36;101005.91;;;20.33;35.38
15382;BME280;7789;51.364;12.358;2023-05-08T14:50:43;101014.88;;;20.32;35.52
15382;BME280;7789;51.364;12.358;2023-05-08T14:55:52;101004.31;;;20.24;35.44
15382;BME280;7789;51.364;12.358;2023-05-08T15:00:59;100994.19;;;20.28;35.36
15382;BME280;7789;51.364;12.358;2023-05-08T15:06:07;100998.78;;;20.34;35.24
15382;BME280;7789;51.364;12.358;2023-05-08T15:11:11;101000.59;;;20.33;36.35
15382;BME280;7789;51.364;12.358;2023-05-08T15:16:22;100998.78;;;20.34;38.14
15382;BME280;7789;51.364;12.358;2023-05-08T15:21:31;100984.34;;;20.36;39.11
15382;BME280;7789;51.364;12.358;2023-05-08T15:26:39;100994.13;;;20.44;39.89
15382;BME280;7789;51.364;12.358;2023-05-08T15:31:49;100996.78;;;20.44;40.16
15382;BME280;7789;51.364;12.358;2023-05-08T15:37:01;101000.88;;;20.54;40.15
15382;BME280;7789;51.364;12.358;2023-05-08T15:42:05;100999.06;;;20.47;40.31
15382;BME280;7789;51.364;12.358;2023-05-08T15:47:18;100998.06;;;20.48;40.73
15382;BME280;7789;51.364;12.358;2023-05-08T15:52:29;101014.88;;;20.32;40.70
15382;BME280;7789;51.364;12.358;2023-05-08T15:57:36;101015.63;;;20.18;40.97
15382;BME280;7789;51.364;12.358;2023-05-08T16:02:47;101003.66;;;20.14;41.35
15382;BME280;7789;51.364;12.358;2023-05-08T16:07:51;101009.31;;;20.11;41.92
15382;BME280;7789;51.364;12.358;2023-05-08T16:12:56;101005.69;;;19.96;41.95
15382;BME280;7789;51.364;12.358;2023-05-08T16:18:02;100994.09;;;19.89;42.27
15382;BME280;7789;51.364;12.358;2023-05-08T16:23:09;100993.44;;;19.79;42.42
15382;BME280;7789;51.364;12.358;2023-05-08T16:28:18;101002.75;;;19.83;42.36
15382;BME280;7789;51.364;12.358;2023-05-08T16:33:32;100989.47;;;19.75;42.51
15382;BME280;7789;51.364;12.358;2023-05-08T16:38:41;100997.66;;;19.58;42.57
15382;BME280;7789;51.364;12.358;2023-05-08T16:43:51;100994.81;;;19.51;42.97
15382;BME280;7789;51.364;12.358;2023-05-08T16:49:13;100998.47;;;19.50;43.10
15382;BME280;7789;51.364;12.358;2023-05-08T16:54:19;100987.72;;;19.44;43.39
15382;BME280;7789;51.364;12.358;2023-05-08T16:59:27;101006.28;;;19.44;43.23
15382;BME280;7789;51.364;12.358;2023-05-08T17:04:37;100986.53;;;19.38;43.01
15382;BME280;7789;51.364;12.358;2023-05-08T17:09:43;100996.00;;;19.33;42.91
15382;BME280;7789;51.364;12.358;2023-05-08T17:14:50;100985.72;;;19.30;42.96
15382;BME280;7789;51.364;12.358;2023-05-08T17:20:00;100989.34;;;19.21;43.08
15382;BME280;7789;51.364;12.358;2023-05-08T17:25:07;100995.28;;;19.15;43.32
15382;BME280;7789;51.364;12.358;2023-05-08T17:30:13;100990.00;;;19.07;43.18
15382;BME280;7789;51.364;12.358;2023-05-08T17:35:21;100986.97;;;19.02;43.73
15382;BME280;7789;51.364;12.358;2023-05-08T17:40:28;100981.03;;;18.92;44.16
15382;BME280;7789;51.364;12.358;2023-05-08T17:45:35;100987.13;;;18.84;44.43
15382;BME280;7789;51.364;12.358;2023-05-08T17:50:40;100988.94;;;18.76;43.94
15382;BME280;7789;51.364;12.358;2023-05-08T17:55:47;100993.88;;;18.63;44.60
15382;BME280;7789;51.364;12.358;2023-05-08T18:00:51;100995.53;;;18.56;44.87
15382;BME280;7789;51.364;12.358;2023-05-08T18:06:00;100994.81;;;18.46;45.18
15382;BME280;7789;51.364;12.358;2023-05-08T18:11:16;101009.16;;;18.36;45.31
15382;BME280;7789;51.364;12.358;2023-05-08T18:16:36;101011.53;;;18.21;45.73
15382;BME280;7789;51.364;12.358;2023-05-08T18:22:00;101014.63;;;18.09;45.84
15382;BME280;7789;51.364;12.358;2023-05-08T18:27:04;101014.06;;;17.97;46.10
15382;BME280;7789;51.364;12.358;2023-05-08T18:32:13;101012.84;;;17.84;46.30
15382;BME280;7789;51.364;12.358;2023-05-08T18:37:30;101027.81;;;17.75;47.21
15382;BME280;7789;51.364;12.358;2023-05-08T18:42:34;101018.13;;;17.58;46.86
15382;BME280;7789;51.364;12.358;2023-05-08T18:47:42;101029.09;;;17.46;47.38
15382;BME280;7789;51.364;12.358;2023-05-08T18:52:48;101030.59;;;17.31;47.54
15382;BME280;7789;51.364;12.358;2023-05-08T18:57:53;101041.50;;;17.18;47.30
15382;BME280;7789;51.364;12.358;2023-05-08T19:02:57;101043.84;;;17.04;47.78
15382;BME280;7789;51.364;12.358;2023-05-08T19:08:07;101040.59;;;16.92;48.10
15382;BME280;7789;51.364;12.358;2023-05-08T19:13:20;101053.78;;;16.75;47.74
15382;BME280;7789;51.364;12.358;2023-05-08T19:18:35;101052.47;;;16.62;48.21
15382;BME280;7789;51.364;12.358;2023-05-08T19:23:42;101049.63;;;16.46;48.27
15382;BME280;7789;51.364;12.358;2023-05-08T19:28:51;101052.56;;;16.33;49.11
15382;BME280;7789;51.364;12.358;2023-05-08T19:33:55;101054.56;;;16.22;49.02
15382;BME280;7789;51.364;12.358;2023-05-08T19:39:09;101045.84;;;16.12;49.61
15382;BME280;7789;51.364;12.358;2023-05-08T19:44:14;101047.69;;;16.02;50.16
15382;BME280;7789;51.364;12.358;2023-05-08T19:49:23;101045.50;;;15.88;50.39
15382;BME280;7789;51.364;12.358;2023-05-08T19:54:31;101042.22;;;15.76;51.06
15382;BME280;7789;51.364;12.358;2023-05-08T19:59:36;101050.56;;;15.62;51.21
15382;BME280;7789;51.364;12.358;2023-05-08T20:04:50;101058.75;;;15.50;51.50
15382;BME280;7789;51.364;12.358;2023-05-08T20:10:16;101057.78;;;15.32;52.16
15382;BME280;7789;51.364;12.358;2023-05-08T20:15:22;101058.84;;;15.20;52.66
15382;BME280;7789;51.364;12.358;2023-05-08T20:20:31;101063.53;;;15.07;52.76
15382;BME280;7789;51.364;12.358;2023-05-08T20:25:39;101065.75;;;14.92;53.60
15382;BME280;7789;51.364;12.358;2023-05-08T20:30:45;101065.84;;;14.82;54.12
15382;BME280;7789;51.364;12.358;2023-05-08T20:35:52;101064.16;;;14.71;54.86
15382;BME280;7789;51.364;12.358;2023-05-08T20:41:00;101064.84;;;14.64;54.95
15382;BME280;7789;51.364;12.358;2023-05-08T20:46:04;101066.59;;;14.54;55.42
15382;BME280;7789;51.364;12.358;2023-05-08T20:51:10;101065.16;;;14.40;56.11
15382;BME280;7789;51.364;12.358;2023-05-08T20:56:18;101068.47;;;14.33;56.88
15382;BME280;7789;51.364;12.358;2023-05-08T21:01:24;101066.06;;;14.20;57.59
15382;BME280;7789;51.364;12.358;2023-05-08T21:06:32;101061.53;;;14.11;58.16
15382;BME280;7789;51.364;12.358;2023-05-08T21:11:40;101071.75;;;14.05;58.71
15382;BME280;7789;51.364;12.358;2023-05-08T21:16:49;101060.63;;;13.92;59.41
15382;BME280;7789;51.364;12.358;2023-05-08T21:22:02;101057.34;;;13.79;60.30
15382;BME280;7789;51.364;12.358;2023-05-08T21:27:14;101049.41;;;13.69;61.12
15382;BME280;7789;51.364;12.358;2023-05-08T21:32:27;101037.16;;;13.59;61.56
15382;BME280;7789;51.364;12.358;2023-05-08T21:37:32;101032.53;;;13.51;61.68
15382;BME280;7789;51.364;12.358;2023-05-08T21:42:41;101025.41;;;13.42;62.73
15382;BME280;7789;51.364;12.358;2023-05-08T21:48:00;101024.66;;;13.31;63.44
15382;BME280;7789;51.364;12.358;2023-05-08T21:53:06;101024.72;;;13.20;64.00
15382;BME280;7789;51.364;12.358;2023-05-08T21:58:18;101019.25;;;13.12;64.39
15382;BME280;7789;51.364;12.358;2023-05-08T22:03:24;101018.19;;;13.03;65.33
15382;BME280;7789;51.364;12.358;2023-05-08T22:08:29;101025.16;;;12.93;66.31
15382;BME280;7789;51.364;12.358;2023-05-08T22:13:37;101022.88;;;12.89;67.08
15382;BME280;7789;51.364;12.358;2023-05-08T22:18:42;101024.22;;;12.84;67.48
15382;BME280;7789;51.364;12.358;2023-05-08T22:23:48;101015.88;;;12.79;68.13
15382;BME280;7789;51.364;12.358;2023-05-08T22:28:56;101015.66;;;12.71;69.40
15382;BME280;7789;51.364;12.358;2023-05-08T22:34:02;101010.91;;;12.65;69.21
15382;BME280;7789;51.364;12.358;2023-05-08T22:39:12;100999.59;;;12.53;70.55
15382;BME280;7789;51.364;12.358;2023-05-08T22:44:25;100992.91;;;12.49;70.61
15382;BME280;7789;51.364;12.358;2023-05-08T22:49:32;100998.91;;;12.40;72.01
15382;BME280;7789;51.364;12.358;2023-05-08T22:54:41;100998.66;;;12.32;71.60
15382;BME280;7789;51.364;12.358;2023-05-08T22:59:48;100994.97;;;12.24;73.39
15382;BME280;7789;51.364;12.358;2023-05-08T23:04:56;100990.34;;;12.16;74.01
15382;BME280;7789;51.364;12.358;2023-05-08T23:10:06;100988.81;;;12.14;74.75
15382;BME280;7789;51.364;12.358;2023-05-08T23:15:14;100988.34;;;12.09;74.48
15382;BME280;7789;51.364;12.358;2023-05-08T23:20:18;100983.44;;;12.04;74.47
15382;BME280;7789;51.364;12.358;2023-05-08T23:25:25;100982.03;;;12.00;75.71
15382;BME280;7789;51.364;12.358;2023-05-08T23:30:33;100980.56;;;11.96;76.04
15382;BME280;7789;51.364;12.358;2023-05-08T23:35:41;100977.47;;;11.91;76.27
15382;BME280;7789;51.364;12.358;2023-05-08T23:40:48;100974.63;;;11.83;76.68
15382;BME280;7789;51.364;12.358;2023-05-08T23:45:57;100974.13;;;11.78;77.49
15382;BME280;7789;51.364;12.358;2023-05-08T23:51:09;100970.19;;;11.73;77.13
15382;BME280;7789;51.364;12.358;2023-05-08T23:56:13;100966.50;;;11.64;77.43
